createdAt,value
2022-09-28T00:00:11.405Z,0.20
2022-09-28T00:01:20.229Z,0.20
2022-09-28T00:02:22.038Z,0.40
2022-09-28T00:03:23.804Z,0.20
2022-09-28T00:04:25.571Z,0.28
2022-09-28T00:05:27.318Z,0.38
2022-09-28T00:06:30.455Z,0.30
2022-09-28T00:07:32.120Z,0.30
2022-09-28T00:08:35.115Z,0.10
2022-09-28T00:09:37.061Z,0.20
2022-09-28T00:10:39.305Z,0.20
2022-09-28T00:11:41.177Z,0.20
2022-09-28T00:12:42.812Z,0.30
2022-09-28T00:13:46.099Z,0.20
2022-09-28T00:14:47.772Z,0.20
2022-09-28T00:15:59.753Z,0.30
2022-09-28T00:17:01.614Z,0.30
2022-09-28T00:18:03.276Z,0.20
2022-09-28T00:19:06.497Z,0.20
2022-09-28T00:20:08.765Z,0.40
2022-09-28T00:21:15.820Z,0.20
2022-09-28T00:22:17.545Z,0.20
2022-09-28T00:23:19.192Z,0.20
2022-09-28T00:24:25.261Z,0.15
2022-09-28T00:25:30.010Z,0.10
2022-09-28T00:26:33.586Z,0.30
2022-09-28T00:27:35.487Z,0.13
2022-09-28T00:28:37.128Z,0.20
2022-09-28T00:29:38.812Z,0.20
2022-09-28T00:30:40.475Z,0.10
2022-09-28T00:31:42.495Z,0.20
2022-09-28T00:32:44.163Z,0.10
2022-09-28T00:33:49.430Z,0.30
2022-09-28T00:34:52.346Z,0.20
2022-09-28T00:35:59.902Z,0.20
2022-09-28T00:37:02.660Z,0.20
2022-09-28T00:38:04.330Z,0.30
2022-09-28T00:39:08.512Z,0.20
2022-09-28T00:40:10.329Z,0.13
2022-09-28T00:41:12.300Z,0.10
2022-09-28T00:42:20.828Z,0.10
2022-09-28T00:43:24.153Z,0.13
2022-09-28T00:44:25.781Z,0.30
2022-09-28T00:45:27.486Z,0.13
2022-09-28T00:46:35.361Z,0.20
2022-09-28T00:47:50.933Z,0.20
2022-09-28T00:49:00.583Z,0.20
2022-09-28T00:50:23.900Z,0.10
2022-09-28T00:51:26.913Z,0.40
2022-09-28T00:52:39.217Z,0.20
2022-09-28T00:53:44.140Z,0.20
2022-09-28T00:54:47.828Z,0.20
2022-09-28T00:55:55.132Z,0.13
2022-09-28T00:56:57.748Z,0.30
2022-09-28T00:58:02.794Z,0.30
2022-09-28T00:59:05.194Z,0.15
2022-09-28T01:00:08.372Z,0.20
2022-09-28T01:01:10.427Z,0.35
2022-09-28T01:02:12.432Z,0.13
2022-09-28T01:03:14.370Z,0.10
2022-09-28T01:04:16.293Z,0.10
2022-09-28T01:05:18.851Z,0.20
2022-09-28T01:06:23.365Z,0.10
2022-09-28T01:07:25.336Z,0.20
2022-09-28T01:08:29.322Z,0.30
2022-09-28T01:09:31.747Z,0.15
2022-09-28T01:10:34.057Z,0.20
2022-09-28T01:11:38.553Z,0.10
2022-09-28T01:12:40.247Z,0.20
2022-09-28T01:13:43.349Z,0.20
2022-09-28T01:14:45.428Z,0.20
2022-09-28T01:15:54.869Z,0.10
2022-09-28T01:17:02.505Z,0.20
2022-09-28T01:18:22.228Z,0.20
2022-09-28T01:19:56.556Z,0.10
2022-09-28T01:21:11.069Z,0.25
2022-09-28T01:22:35.923Z,0.30
2022-09-28T01:24:10.973Z,0.20
2022-09-28T01:25:25.559Z,0.20
2022-09-28T01:26:27.196Z,0.25
2022-09-28T01:27:42.074Z,0.20
2022-09-28T01:28:47.190Z,0.10
2022-09-28T01:30:04.908Z,0.30
2022-09-28T01:31:15.972Z,0.10
2022-09-28T01:32:31.124Z,0.20
2022-09-28T01:33:39.958Z,0.22
2022-09-28T01:34:51.218Z,0.22
2022-09-28T01:36:04.951Z,0.20
2022-09-28T01:37:11.677Z,0.27
2022-09-28T01:38:22.302Z,0.30
2022-09-28T01:39:36.568Z,0.20
2022-09-28T01:40:39.489Z,0.20
2022-09-28T01:41:44.159Z,0.20
2022-09-28T01:42:49.632Z,0.20
2022-09-28T01:43:56.455Z,0.10
2022-09-28T01:45:05.542Z,0.30
2022-09-28T01:46:13.901Z,0.30
2022-09-28T01:47:19.626Z,0.30
2022-09-28T01:48:43.652Z,0.30
2022-09-28T01:49:49.190Z,0.45
2022-09-28T01:50:55.744Z,0.10
2022-09-28T01:52:06.410Z,0.20
2022-09-28T01:53:18.425Z,0.20
2022-09-28T01:54:45.297Z,0.30
2022-09-28T01:55:57.804Z,0.20
2022-09-28T01:57:04.934Z,0.30
2022-09-28T01:58:19.016Z,0.20
2022-09-28T01:59:27.991Z,0.30
2022-09-28T02:00:29.851Z,0.20
2022-09-28T02:01:41.445Z,0.30
2022-09-28T02:03:08.977Z,0.28
2022-09-28T02:04:16.918Z,0.30
2022-09-28T02:05:24.998Z,0.13
2022-09-28T02:06:33.013Z,0.22
2022-09-28T02:07:54.983Z,0.20
2022-09-28T02:09:03.173Z,0.55
2022-09-28T02:10:13.463Z,0.20
2022-09-28T02:11:18.653Z,0.20
2022-09-28T02:12:34.147Z,0.30
2022-09-28T02:13:41.043Z,0.20
2022-09-28T02:14:45.377Z,0.30
2022-09-28T02:15:53.866Z,0.30
2022-09-28T02:16:57.935Z,0.30
2022-09-28T02:17:59.783Z,0.30
2022-09-28T02:19:03.310Z,0.20
2022-09-28T02:20:05.628Z,0.30
2022-09-28T02:21:13.446Z,0.55
2022-09-28T02:22:34.993Z,0.32
2022-09-28T02:23:39.541Z,0.30
2022-09-28T02:24:51.967Z,0.30
2022-09-28T02:26:03.498Z,0.20
2022-09-28T02:27:19.731Z,0.30
2022-09-28T02:28:21.391Z,0.20
2022-09-28T02:29:23.951Z,0.28
2022-09-28T02:30:26.026Z,0.30
2022-09-28T02:31:28.266Z,0.30
2022-09-28T02:32:32.377Z,0.60
2022-09-28T02:33:38.513Z,0.35
2022-09-28T02:34:41.343Z,0.33
2022-09-28T02:35:43.583Z,0.30
2022-09-28T02:36:46.647Z,0.30
2022-09-28T02:37:49.764Z,0.30
2022-09-28T02:38:52.514Z,0.40
2022-09-28T02:39:54.158Z,0.40
2022-09-28T02:41:32.558Z,0.35
2022-09-28T02:42:42.666Z,0.30
2022-09-28T02:44:32.034Z,0.30
2022-09-28T02:45:42.585Z,0.40
2022-09-28T02:46:55.980Z,0.50
2022-09-28T02:48:43.714Z,0.28
2022-09-28T02:50:14.856Z,0.30
2022-09-28T02:51:39.807Z,0.35
2022-09-28T02:53:03.576Z,0.40
2022-09-28T02:54:18.562Z,0.50
2022-09-28T02:55:28.978Z,0.50
2022-09-28T02:56:51.862Z,0.60
2022-09-28T02:58:17.849Z,0.28
2022-09-28T02:59:28.563Z,0.50
2022-09-28T03:00:34.749Z,0.60
2022-09-28T03:02:07.528Z,0.50
2022-09-28T03:03:15.036Z,0.38
2022-09-28T03:04:37.415Z,0.80
2022-09-28T03:05:52.792Z,0.50
2022-09-28T03:07:07.566Z,0.50
2022-09-28T03:08:23.802Z,0.57
2022-09-28T03:10:01.565Z,0.60
2022-09-28T03:11:12.932Z,0.50
2022-09-28T03:12:18.500Z,0.57
2022-09-28T03:13:20.820Z,0.50
2022-09-28T03:14:22.612Z,0.40
2022-09-28T03:15:28.132Z,0.40
2022-09-28T03:16:32.109Z,0.50
2022-09-28T03:17:33.825Z,0.30
2022-09-28T03:18:35.507Z,0.60
2022-09-28T03:19:37.212Z,0.50
2022-09-28T03:20:39.132Z,0.50
2022-09-28T03:21:41.337Z,0.50
2022-09-28T03:22:43.424Z,0.40
2022-09-28T03:23:45.402Z,0.40
2022-09-28T03:24:47.072Z,0.30
2022-09-28T03:25:48.735Z,0.32
2022-09-28T03:26:50.436Z,0.57
2022-09-28T03:27:52.233Z,0.30
2022-09-28T03:28:53.926Z,0.43
2022-09-28T03:29:55.601Z,0.40
2022-09-28T03:30:57.292Z,0.30
2022-09-28T03:31:59.011Z,0.40
2022-09-28T03:33:02.460Z,0.60
2022-09-28T03:34:04.592Z,0.30
2022-09-28T03:35:07.276Z,0.43
2022-09-28T03:36:09.645Z,0.50
2022-09-28T03:37:11.302Z,0.50
2022-09-28T03:38:12.964Z,0.32
2022-09-28T03:39:14.718Z,0.50
2022-09-28T03:40:16.477Z,0.45
2022-09-28T03:41:18.138Z,0.50
2022-09-28T03:42:19.833Z,0.60
2022-09-28T03:43:21.980Z,0.60
2022-09-28T03:44:23.630Z,0.57
2022-09-28T03:45:25.366Z,0.57
2022-09-28T03:46:27.389Z,0.50
2022-09-28T03:47:29.049Z,0.50
2022-09-28T03:48:33.246Z,0.50
2022-09-28T03:49:35.314Z,0.50
2022-09-28T03:50:36.979Z,0.60
2022-09-28T03:51:38.657Z,0.65
2022-09-28T03:52:40.299Z,1.00
2022-09-28T03:53:42.032Z,0.90
2022-09-28T03:54:48.302Z,0.80
2022-09-28T03:55:53.200Z,0.70
2022-09-28T03:56:54.864Z,0.80
2022-09-28T03:57:56.556Z,0.70
2022-09-28T03:58:58.200Z,0.60
2022-09-28T03:59:59.995Z,0.57
2022-09-28T04:01:16.406Z,0.50
2022-09-28T04:02:18.910Z,0.77
2022-09-28T04:03:20.594Z,0.70
2022-09-28T04:04:22.427Z,0.50
2022-09-28T04:05:24.128Z,0.60
2022-09-28T04:06:26.508Z,0.63
2022-09-28T04:07:31.112Z,0.30
2022-09-28T04:08:33.063Z,0.68
2022-09-28T04:09:34.724Z,0.50
2022-09-28T04:10:36.407Z,0.50
2022-09-28T04:11:59.402Z,0.40
2022-09-28T04:12:59.821Z,0.50
2022-09-28T04:14:01.774Z,0.40
2022-09-28T04:15:03.570Z,0.47
2022-09-28T04:16:05.593Z,0.40
2022-09-28T04:17:07.349Z,0.50
2022-09-28T04:18:12.549Z,0.52
2022-09-28T04:19:15.178Z,0.45
2022-09-28T04:20:17.732Z,0.57
2022-09-28T04:21:20.479Z,0.60
2022-09-28T04:22:23.297Z,0.50
2022-09-28T04:23:25.153Z,0.30
2022-09-28T04:24:26.820Z,0.40
2022-09-28T04:25:28.519Z,0.40
2022-09-28T04:26:30.415Z,0.23
2022-09-28T04:27:51.235Z,0.38
2022-09-28T04:29:12.389Z,0.50
2022-09-28T04:30:14.077Z,0.50
2022-09-28T04:31:19.414Z,0.70
2022-09-28T04:32:21.528Z,0.70
2022-09-28T04:33:23.184Z,0.80
2022-09-28T04:34:24.857Z,1.15
2022-09-28T04:35:26.558Z,0.82
2022-09-28T04:36:28.206Z,0.73
2022-09-28T04:37:31.289Z,0.50
2022-09-28T04:38:51.757Z,0.57
2022-09-28T04:39:54.291Z,0.50
2022-09-28T04:40:55.992Z,0.55
2022-09-28T04:41:57.691Z,0.70
2022-09-28T04:42:59.330Z,0.52
2022-09-28T04:44:01.229Z,0.55
2022-09-28T04:45:04.768Z,0.65
2022-09-28T04:46:06.780Z,0.55
2022-09-28T04:47:08.722Z,0.80
2022-09-28T04:48:10.353Z,0.73
2022-09-28T04:49:12.168Z,0.68
2022-09-28T04:50:13.936Z,0.60
2022-09-28T04:51:15.755Z,0.70
2022-09-28T04:52:18.537Z,0.80
2022-09-28T04:53:20.668Z,0.75
2022-09-28T04:54:22.343Z,0.77
2022-09-28T04:55:24.168Z,0.50
2022-09-28T04:56:25.815Z,0.70
2022-09-28T04:57:27.435Z,0.70
2022-09-28T04:58:30.209Z,0.87
2022-09-28T04:59:32.262Z,0.60
2022-09-28T05:00:35.134Z,0.80
2022-09-28T05:01:37.016Z,0.80
2022-09-28T05:02:39.231Z,0.85
2022-09-28T05:03:41.853Z,0.85
2022-09-28T05:04:43.497Z,0.95
2022-09-28T05:05:46.020Z,1.05
2022-09-28T05:06:47.666Z,1.30
2022-09-28T05:07:49.325Z,1.50
2022-09-28T05:08:51.896Z,2.00
2022-09-28T05:09:55.238Z,1.20
2022-09-28T05:10:59.675Z,1.80
2022-09-28T05:12:01.575Z,1.33
2022-09-28T05:13:03.571Z,1.20
2022-09-28T05:14:05.952Z,1.20
2022-09-28T05:15:07.894Z,0.90
2022-09-28T05:16:10.838Z,0.93
2022-09-28T05:17:12.525Z,1.10
2022-09-28T05:18:14.272Z,1.17
2022-09-28T05:19:16.109Z,1.00
2022-09-28T05:20:17.752Z,1.00
2022-09-28T05:21:20.138Z,0.93
2022-09-28T05:22:21.803Z,0.95
2022-09-28T05:23:23.453Z,0.70
2022-09-28T05:24:25.126Z,1.10
2022-09-28T05:25:26.795Z,0.82
2022-09-28T05:26:28.441Z,0.85
2022-09-28T05:27:30.113Z,1.10
2022-09-28T05:28:33.185Z,1.05
2022-09-28T05:29:34.943Z,1.10
2022-09-28T05:30:37.176Z,1.00
2022-09-28T05:31:38.868Z,1.30
2022-09-28T05:32:44.293Z,1.17
2022-09-28T05:33:45.982Z,1.17
2022-09-28T05:34:47.638Z,1.10
2022-09-28T05:35:53.800Z,1.40
2022-09-28T05:36:56.845Z,1.42
2022-09-28T05:38:04.608Z,1.15
2022-09-28T05:39:06.859Z,1.10
2022-09-28T05:40:09.328Z,1.20
2022-09-28T05:41:11.591Z,1.35
2022-09-28T05:42:13.288Z,1.17
2022-09-28T05:43:15.033Z,1.30
2022-09-28T05:44:16.892Z,1.60
2022-09-28T05:45:18.733Z,1.23
2022-09-28T05:46:21.839Z,1.10
2022-09-28T05:47:23.586Z,1.23
2022-09-28T05:48:25.512Z,1.30
2022-09-28T05:49:29.172Z,1.70
2022-09-28T05:50:30.879Z,1.60
2022-09-28T05:51:32.606Z,1.80
2022-09-28T05:52:34.385Z,1.50
2022-09-28T05:53:36.441Z,1.30
2022-09-28T05:54:38.089Z,1.67
2022-09-28T05:55:39.984Z,1.38
2022-09-28T05:56:41.669Z,1.80
2022-09-28T05:57:43.381Z,1.80
2022-09-28T05:58:45.024Z,1.20
2022-09-28T05:59:46.678Z,1.20
2022-09-28T06:00:56.758Z,1.27
2022-09-28T06:01:58.508Z,2.97
2022-09-28T06:03:06.735Z,2.63
2022-09-28T06:04:10.577Z,4.35
2022-09-28T06:05:12.314Z,2.50
2022-09-28T06:06:13.997Z,3.72
2022-09-28T06:07:15.726Z,9.25
2022-09-28T06:08:17.493Z,2.88
2022-09-28T06:09:21.684Z,1.27
2022-09-28T06:10:28.478Z,3.07
2022-09-28T06:11:32.123Z,1.67
2022-09-28T06:12:34.227Z,1.52
2022-09-28T06:13:36.168Z,1.63
2022-09-28T06:14:38.953Z,1.85
2022-09-28T06:15:42.584Z,6.55
2022-09-28T06:16:44.801Z,27.70
2022-09-28T06:17:46.504Z,82.40
2022-09-28T06:18:48.440Z,32.83
2022-09-28T06:19:52.301Z,26.63
2022-09-28T06:20:53.968Z,23.87
2022-09-28T06:21:57.530Z,11.53
2022-09-28T06:23:00.913Z,10.52
2022-09-28T06:24:03.884Z,3.88
2022-09-28T06:25:06.845Z,2.63
2022-09-28T06:26:08.576Z,1.90
2022-09-28T06:27:10.253Z,1.58
2022-09-28T06:28:14.282Z,1.98
2022-09-28T06:29:19.788Z,1.30
2022-09-28T06:30:22.360Z,1.15
2022-09-28T06:31:24.968Z,1.40
2022-09-28T06:32:29.261Z,1.70
2022-09-28T06:33:30.989Z,1.25
2022-09-28T06:34:32.658Z,1.67
2022-09-28T06:35:35.387Z,1.77
2022-09-28T06:36:37.027Z,1.90
2022-09-28T06:37:38.724Z,2.33
2022-09-28T06:38:40.486Z,2.35
2022-09-28T06:39:42.129Z,1.95
2022-09-28T06:40:43.897Z,3.85
2022-09-28T06:41:45.609Z,4.32
2022-09-28T06:43:01.633Z,5.50
2022-09-28T06:44:03.769Z,10.50
2022-09-28T06:45:06.838Z,13.18
2022-09-28T06:46:10.485Z,8.35
2022-09-28T06:47:12.261Z,4.97
2022-09-28T06:48:15.393Z,12.20
2022-09-28T06:49:19.620Z,5.30
2022-09-28T06:50:21.465Z,3.38
2022-09-28T06:51:23.283Z,3.15
2022-09-28T06:52:25.493Z,3.00
2022-09-28T06:53:28.788Z,3.37
2022-09-28T06:54:30.440Z,3.78
2022-09-28T06:55:32.548Z,3.70
2022-09-28T06:56:34.181Z,3.25
2022-09-28T06:57:35.931Z,3.25
2022-09-28T06:58:37.824Z,2.78
2022-09-28T06:59:39.589Z,2.95
2022-09-28T07:00:42.093Z,2.95
2022-09-28T07:01:43.794Z,2.63
2022-09-28T07:02:45.586Z,3.03
2022-09-28T07:03:47.277Z,4.30
2022-09-28T07:04:49.244Z,4.95
2022-09-28T07:05:54.041Z,4.10
2022-09-28T07:06:55.728Z,3.00
2022-09-28T07:07:57.793Z,3.92
2022-09-28T07:09:18.885Z,6.90
2022-09-28T07:10:27.738Z,5.93
2022-09-28T07:11:29.748Z,4.85
2022-09-28T07:12:32.244Z,4.70
2022-09-28T07:13:49.728Z,3.33
2022-09-28T07:14:57.341Z,3.47
2022-09-28T07:16:02.275Z,4.03
2022-09-28T07:17:13.732Z,27.77
2022-09-28T07:18:18.708Z,14.70
2022-09-28T07:19:20.422Z,30.88
2022-09-28T07:20:22.080Z,27.42
2022-09-28T07:21:29.922Z,8.30
2022-09-28T07:22:42.554Z,23.90
2022-09-28T07:23:52.221Z,9.18
2022-09-28T07:24:55.439Z,5.05
2022-09-28T07:25:58.523Z,3.43
2022-09-28T07:27:00.217Z,2.80
2022-09-28T07:28:03.729Z,2.83
2022-09-28T07:29:05.528Z,3.13
2022-09-28T07:30:07.776Z,2.95
2022-09-28T07:31:10.508Z,3.60
2022-09-28T07:32:12.186Z,2.85
2022-09-28T07:33:15.917Z,3.50
2022-09-28T07:34:18.583Z,5.30
2022-09-28T07:35:20.478Z,5.22
2022-09-28T07:36:22.897Z,5.77
2022-09-28T07:37:26.555Z,6.20
2022-09-28T07:38:28.209Z,3.40
2022-09-28T07:39:29.873Z,3.60
2022-09-28T07:40:51.406Z,3.10
2022-09-28T07:41:56.707Z,3.75
2022-09-28T07:43:07.866Z,4.60
2022-09-28T07:44:09.514Z,3.63
2022-09-28T07:45:11.466Z,3.60
2022-09-28T07:46:13.431Z,3.50
2022-09-28T07:47:15.247Z,3.70
2022-09-28T07:48:17.533Z,3.88
2022-09-28T07:49:19.295Z,3.75
2022-09-28T07:50:21.512Z,3.88
2022-09-28T07:51:23.263Z,4.07
2022-09-28T07:52:26.268Z,3.90
2022-09-28T07:53:28.499Z,4.25
2022-09-28T07:54:31.287Z,4.90
2022-09-28T07:55:33.003Z,6.65
2022-09-28T07:56:35.011Z,6.95
2022-09-28T07:57:36.735Z,5.77
2022-09-28T07:58:39.440Z,4.47
2022-09-28T07:59:41.085Z,4.75
2022-09-28T08:00:47.558Z,4.72
2022-09-28T08:01:49.574Z,4.35
2022-09-28T08:02:51.489Z,5.10
2022-09-28T08:03:56.259Z,4.28
2022-09-28T08:04:58.229Z,4.30
2022-09-28T08:06:05.300Z,4.53
2022-09-28T08:07:11.702Z,4.70
2022-09-28T08:08:13.854Z,5.27
2022-09-28T08:09:15.639Z,4.88
2022-09-28T08:10:17.404Z,5.47
2022-09-28T08:11:19.427Z,4.35
2022-09-28T08:12:21.671Z,4.85
2022-09-28T08:13:27.099Z,4.43
2022-09-28T08:14:29.630Z,4.70
2022-09-28T08:15:38.245Z,4.68
2022-09-28T08:16:40.371Z,6.00
2022-09-28T08:17:47.077Z,6.45
2022-09-28T08:18:49.299Z,8.43
2022-09-28T08:20:09.826Z,7.97
2022-09-28T08:21:29.925Z,6.28
2022-09-28T08:22:32.311Z,6.88
2022-09-28T08:23:33.988Z,7.00
2022-09-28T08:24:35.626Z,7.45
2022-09-28T08:25:38.290Z,6.38
2022-09-28T08:26:40.085Z,6.43
2022-09-28T08:27:41.725Z,6.25
2022-09-28T08:28:45.104Z,5.75
2022-09-28T08:29:46.868Z,5.70
2022-09-28T08:30:50.324Z,4.95
2022-09-28T08:31:52.091Z,4.70
2022-09-28T08:32:53.867Z,4.85
2022-09-28T08:33:57.373Z,4.25
2022-09-28T08:34:59.574Z,4.95
2022-09-28T08:36:02.393Z,5.35
2022-09-28T08:37:07.136Z,5.10
2022-09-28T08:38:09.135Z,4.82
2022-09-28T08:39:11.048Z,4.95
2022-09-28T08:40:18.903Z,5.00
2022-09-28T08:41:35.988Z,4.05
2022-09-28T08:42:43.029Z,3.70
2022-09-28T08:44:24.200Z,3.47
2022-09-28T08:45:28.787Z,3.72
2022-09-28T08:46:45.531Z,3.53
2022-09-28T08:48:10.202Z,2.95
2022-09-28T08:49:26.494Z,2.38
2022-09-28T08:50:31.811Z,2.88
2022-09-28T08:52:00.753Z,2.20
2022-09-28T08:53:13.706Z,2.20
2022-09-28T08:54:27.582Z,2.00
2022-09-28T08:55:38.888Z,1.98
2022-09-28T08:56:49.559Z,1.90
2022-09-28T08:58:11.514Z,6.80
2022-09-28T08:59:18.604Z,2.80
2022-09-28T09:00:35.409Z,1.77
2022-09-28T09:01:47.602Z,1.60
2022-09-28T09:02:49.842Z,1.25
2022-09-28T09:03:52.357Z,1.48
2022-09-28T09:04:54.625Z,3.60
2022-09-28T09:06:14.215Z,3.38
2022-09-28T09:07:37.628Z,2.40
2022-09-28T09:09:01.062Z,3.33
2022-09-28T09:10:05.787Z,2.17
2022-09-28T09:11:50.114Z,2.78
2022-09-28T09:13:04.181Z,2.33
2022-09-28T09:14:24.468Z,1.45
2022-09-28T09:15:33.794Z,0.50
2022-09-28T09:17:18.386Z,0.90
2022-09-28T09:18:42.623Z,2.57
2022-09-28T09:19:54.381Z,1.90
2022-09-28T09:20:58.998Z,0.90
2022-09-28T09:22:15.434Z,1.30
2022-09-28T09:23:39.188Z,1.08
2022-09-28T09:24:52.074Z,1.30
2022-09-28T09:26:04.706Z,1.92
2022-09-28T09:27:27.424Z,0.98
2022-09-28T09:28:43.732Z,1.50
2022-09-28T09:30:16.892Z,1.05
2022-09-28T09:31:55.122Z,1.37
2022-09-28T09:33:44.455Z,1.80
2022-09-28T09:35:00.030Z,1.48
2022-09-28T09:36:18.136Z,1.30
2022-09-28T09:37:35.412Z,1.45
2022-09-28T09:39:11.349Z,1.63
2022-09-28T09:40:15.725Z,1.60
2022-09-28T09:41:25.491Z,0.90
2022-09-28T09:42:53.188Z,1.17
2022-09-28T09:44:13.776Z,1.15
2022-09-28T09:45:41.248Z,1.93
2022-09-28T09:46:54.129Z,1.00
2022-09-28T09:48:15.363Z,1.00
2022-09-28T09:49:30.744Z,1.67
2022-09-28T09:50:49.604Z,1.30
2022-09-28T09:52:44.450Z,1.13
2022-09-28T09:53:52.562Z,3.95
2022-09-28T09:55:14.155Z,3.88
2022-09-28T09:56:28.116Z,1.60
2022-09-28T09:57:34.862Z,4.05
2022-09-28T09:58:47.923Z,6.43
2022-09-28T09:59:50.040Z,3.03
2022-09-28T10:00:55.115Z,2.45
2022-09-28T10:01:57.077Z,2.70
2022-09-28T10:03:00.477Z,1.10
2022-09-28T10:04:03.967Z,1.10
2022-09-28T10:05:11.612Z,0.80
2022-09-28T10:06:27.423Z,0.75
2022-09-28T10:07:54.754Z,0.80
2022-09-28T10:09:32.754Z,1.08
2022-09-28T10:10:37.664Z,0.87
2022-09-28T10:11:50.432Z,0.98
2022-09-28T10:12:52.748Z,0.85
2022-09-28T10:13:55.467Z,1.08
2022-09-28T10:14:57.331Z,1.00
2022-09-28T10:16:02.060Z,1.00
2022-09-28T10:17:04.959Z,0.80
2022-09-28T10:18:11.120Z,0.60
2022-09-28T10:19:13.568Z,0.60
2022-09-28T10:20:16.562Z,0.68
2022-09-28T10:21:21.613Z,0.80
2022-09-28T10:22:27.175Z,0.90
2022-09-28T10:23:35.998Z,0.73
2022-09-28T10:24:47.152Z,0.80
2022-09-28T10:25:52.472Z,0.80
2022-09-28T10:26:55.575Z,0.70
2022-09-28T10:27:59.851Z,0.73
2022-09-28T10:29:04.575Z,0.50
2022-09-28T10:30:15.748Z,0.60
2022-09-28T10:31:47.407Z,0.70
2022-09-28T10:32:52.510Z,0.93
2022-09-28T10:33:57.587Z,1.08
2022-09-28T10:35:17.974Z,0.80
2022-09-28T10:36:19.864Z,1.08
2022-09-28T10:37:31.854Z,1.50
2022-09-28T10:38:34.897Z,0.90
2022-09-28T10:39:48.452Z,0.60
2022-09-28T10:40:58.364Z,1.90
2022-09-28T10:42:04.293Z,1.83
2022-09-28T10:43:31.462Z,1.85
2022-09-28T10:44:35.725Z,1.70
2022-09-28T10:45:38.462Z,2.03
2022-09-28T10:46:40.233Z,1.90
2022-09-28T10:47:44.621Z,1.05
2022-09-28T10:48:55.070Z,1.27
2022-09-28T10:49:56.776Z,1.02
2022-09-28T10:51:05.566Z,1.08
2022-09-28T10:52:37.717Z,1.25
2022-09-28T10:53:39.926Z,1.08
2022-09-28T10:54:53.262Z,2.90
2022-09-28T10:55:59.392Z,1.00
2022-09-28T10:57:01.439Z,15.32
2022-09-28T10:58:27.226Z,4.60
2022-09-28T10:59:28.832Z,1.83
2022-09-28T11:00:35.154Z,1.65
2022-09-28T11:01:37.015Z,1.10
2022-09-28T11:02:40.380Z,1.20
2022-09-28T11:03:59.819Z,0.80
2022-09-28T11:05:04.779Z,0.60
2022-09-28T11:06:07.953Z,0.75
2022-09-28T11:07:32.359Z,1.27
2022-09-28T11:08:45.732Z,2.33
2022-09-28T11:09:49.462Z,4.50
2022-09-28T11:11:06.779Z,7.45
2022-09-28T11:12:15.790Z,5.95
2022-09-28T11:13:17.477Z,1.50
2022-09-28T11:14:42.192Z,1.00
2022-09-28T11:15:44.573Z,1.27
2022-09-28T11:16:46.289Z,4.22
2022-09-28T11:17:48.343Z,6.53
2022-09-28T11:18:50.616Z,7.67
2022-09-28T11:19:53.755Z,5.68
2022-09-28T11:21:11.944Z,4.10
2022-09-28T11:22:21.518Z,1.67
2022-09-28T11:23:31.075Z,1.30
2022-09-28T11:24:32.720Z,2.78
2022-09-28T11:25:34.435Z,2.15
2022-09-28T11:26:42.062Z,1.42
2022-09-28T11:28:04.875Z,0.90
2022-09-28T11:29:07.886Z,1.40
2022-09-28T11:31:06.240Z,1.50
2022-09-28T11:32:14.894Z,1.20
2022-09-28T11:33:33.013Z,1.00
2022-09-28T11:34:58.069Z,1.10
2022-09-28T11:36:14.457Z,1.10
2022-09-28T11:37:27.820Z,0.82
2022-09-28T11:38:42.593Z,1.00
2022-09-28T11:40:20.247Z,0.90
2022-09-28T11:41:36.662Z,0.75
2022-09-28T11:42:47.802Z,1.30
2022-09-28T11:44:01.164Z,0.90
2022-09-28T11:45:31.066Z,1.27
2022-09-28T11:46:40.710Z,0.90
2022-09-28T11:48:15.604Z,1.30
2022-09-28T11:49:19.975Z,1.42
2022-09-28T11:50:30.798Z,1.80
2022-09-28T11:51:36.277Z,1.90
2022-09-28T11:52:57.013Z,1.20
2022-09-28T11:54:05.283Z,0.80
2022-09-28T11:55:18.942Z,1.83
2022-09-28T11:56:30.851Z,1.20
2022-09-28T11:57:38.575Z,1.20
2022-09-28T11:58:41.954Z,0.80
2022-09-28T12:00:00.290Z,1.10
2022-09-28T12:01:22.020Z,1.10
2022-09-28T12:02:39.580Z,0.70
2022-09-28T12:03:46.329Z,0.73
2022-09-28T12:04:56.864Z,0.90
2022-09-28T12:06:05.093Z,0.77
2022-09-28T12:07:12.973Z,0.82
2022-09-28T12:08:27.502Z,0.83
2022-09-28T12:09:53.393Z,0.90
2022-09-28T12:11:09.771Z,1.20
2022-09-28T12:12:22.433Z,0.98
2022-09-28T12:13:31.668Z,0.90
2022-09-28T12:14:39.852Z,0.98
2022-09-28T12:16:17.113Z,0.80
2022-09-28T12:17:20.123Z,1.20
2022-09-28T12:20:10.158Z,0.90
2022-09-28T12:21:40.786Z,1.10
2022-09-28T12:22:48.313Z,0.90
2022-09-28T12:23:55.921Z,0.82
2022-09-28T12:24:59.275Z,0.95
2022-09-28T12:26:04.579Z,1.10
2022-09-28T12:27:18.319Z,0.90
2022-09-28T12:28:48.997Z,1.00
2022-09-28T12:29:56.147Z,0.77
2022-09-28T12:31:05.803Z,0.77
2022-09-28T12:32:25.915Z,0.70
2022-09-28T12:33:27.597Z,1.00
2022-09-28T12:34:29.457Z,0.80
2022-09-28T12:35:49.689Z,0.50
2022-09-28T12:37:01.435Z,0.60
2022-09-28T12:38:20.468Z,0.70
2022-09-28T12:39:46.890Z,0.70
2022-09-28T12:40:49.763Z,0.50
2022-09-28T12:42:29.005Z,0.80
2022-09-28T12:43:33.523Z,0.70
2022-09-28T12:44:59.748Z,0.70
2022-09-28T12:46:22.765Z,0.60
2022-09-28T12:47:51.137Z,0.40
2022-09-28T12:49:47.200Z,0.60
2022-09-28T12:50:39.942Z,0.65
2022-09-28T12:51:51.429Z,0.70
2022-09-28T12:53:09.098Z,0.70
2022-09-28T12:54:48.378Z,0.70
2022-09-28T12:56:02.756Z,0.47
2022-09-28T12:57:29.680Z,0.60
2022-09-28T12:58:31.360Z,0.50
2022-09-28T12:59:42.423Z,0.60
2022-09-28T13:01:02.879Z,0.85
2022-09-28T13:02:22.803Z,0.35
2022-09-28T13:03:50.358Z,0.38
2022-09-28T13:05:38.839Z,0.40
2022-09-28T13:07:07.724Z,0.38
2022-09-28T13:08:20.778Z,0.20
2022-09-28T13:09:24.013Z,0.30
2022-09-28T13:10:32.590Z,0.30
2022-09-28T13:11:37.687Z,0.30
2022-09-28T13:12:45.523Z,0.33
2022-09-28T13:14:12.032Z,0.20
2022-09-28T13:16:04.997Z,0.28
2022-09-28T13:17:33.861Z,0.30
2022-09-28T13:18:49.184Z,0.22
2022-09-28T13:19:54.945Z,0.32
2022-09-28T13:21:26.271Z,0.30
2022-09-28T13:22:44.400Z,0.30
2022-09-28T13:23:48.057Z,0.20
2022-09-28T13:24:52.808Z,0.10
2022-09-28T13:26:14.442Z,0.20
2022-09-28T13:27:31.770Z,0.28
2022-09-28T13:28:36.081Z,0.20
2022-09-28T13:30:46.959Z,0.20
2022-09-28T13:31:58.241Z,0.15
2022-09-28T13:33:03.328Z,0.20
2022-09-28T13:34:07.228Z,0.20
2022-09-28T13:35:14.939Z,0.10
2022-09-28T13:36:26.204Z,0.20
2022-09-28T13:37:29.402Z,0.20
2022-09-28T13:38:47.134Z,0.40
2022-09-28T13:39:55.107Z,0.30
2022-09-28T13:41:06.103Z,0.30
2022-09-28T13:42:10.332Z,0.38
2022-09-28T13:43:28.660Z,1.02
2022-09-28T13:44:51.515Z,0.50
2022-09-28T13:45:56.573Z,0.30
2022-09-28T13:47:25.615Z,0.40
2022-09-28T13:49:01.071Z,0.28
2022-09-28T13:50:32.141Z,0.30
2022-09-28T13:51:58.597Z,0.70
2022-09-28T13:53:39.606Z,0.45
2022-09-28T13:55:10.843Z,0.45
2022-09-28T13:56:27.041Z,0.30
2022-09-28T13:57:48.684Z,0.20
2022-09-28T13:58:53.663Z,0.30
2022-09-28T14:00:11.565Z,0.20
2022-09-28T14:01:22.263Z,0.30
2022-09-28T14:02:43.329Z,0.30
2022-09-28T14:04:23.801Z,0.20
2022-09-28T14:05:52.124Z,0.50
2022-09-28T14:06:56.991Z,0.15
2022-09-28T14:08:28.965Z,0.20
2022-09-28T14:10:09.578Z,0.17
2022-09-28T14:11:40.662Z,0.20
2022-09-28T14:12:49.838Z,0.28
2022-09-28T14:14:26.429Z,0.20
2022-09-28T14:15:43.839Z,0.10
2022-09-28T14:16:45.772Z,0.20
2022-09-28T14:17:57.220Z,0.20
2022-09-28T14:19:20.466Z,0.20
2022-09-28T14:20:25.233Z,0.20
2022-09-28T14:21:35.699Z,0.20
2022-09-28T14:23:00.861Z,0.10
2022-09-28T14:24:11.013Z,0.32
2022-09-28T14:25:23.571Z,0.20
2022-09-28T14:26:39.570Z,0.20
2022-09-28T14:27:52.017Z,0.40
2022-09-28T14:28:59.464Z,0.10
2022-09-28T14:30:18.648Z,0.17
2022-09-28T14:31:28.426Z,0.10
2022-09-28T14:32:36.995Z,0.20
2022-09-28T14:33:39.377Z,0.20
2022-09-28T14:34:46.849Z,0.20
2022-09-28T14:35:59.020Z,0.20
2022-09-28T14:37:21.183Z,0.20
2022-09-28T14:38:55.674Z,0.20
2022-09-28T14:40:16.577Z,0.15
2022-09-28T14:41:29.850Z,0.15
2022-09-28T14:42:32.597Z,0.30
2022-09-28T14:43:34.848Z,0.20
2022-09-28T14:45:06.841Z,0.20
2022-09-28T14:46:12.365Z,0.20
2022-09-28T14:47:37.944Z,0.20
2022-09-28T14:48:52.652Z,0.10
2022-09-28T14:50:01.640Z,2.35
2022-09-28T14:51:24.891Z,0.40
2022-09-28T14:52:48.025Z,0.20
2022-09-28T14:53:54.746Z,0.15
2022-09-28T14:54:57.223Z,0.10
2022-09-28T14:56:07.704Z,0.10
2022-09-28T14:57:19.147Z,0.10
2022-09-28T14:58:27.529Z,0.20
2022-09-28T14:59:39.447Z,0.20
2022-09-28T15:00:44.267Z,0.20
2022-09-28T15:02:05.171Z,0.10
2022-09-28T15:03:12.284Z,0.20
2022-09-28T15:04:15.645Z,0.30
2022-09-28T15:05:27.964Z,0.20
2022-09-28T15:06:46.050Z,0.20
2022-09-28T15:07:51.860Z,0.20
2022-09-28T15:08:53.685Z,0.20
2022-09-28T15:09:58.941Z,0.20
2022-09-28T15:11:02.026Z,0.30
2022-09-28T15:12:09.693Z,0.30
2022-09-28T15:13:31.119Z,0.30
2022-09-28T15:14:36.003Z,0.30
2022-09-28T15:15:42.653Z,0.40
2022-09-28T15:16:44.910Z,0.68
2022-09-28T15:17:53.629Z,0.47
2022-09-28T15:19:01.393Z,0.40